createdAt,value
2023-10-13T00:00:42.544Z,9.00
2023-10-13T00:06:07.962Z,8.63
2023-10-13T00:11:34.390Z,8.18
2023-10-13T00:22:37.677Z,10.53
2023-10-13T00:28:02.328Z,12.37
2023-10-13T00:33:25.348Z,13.63
2023-10-13T00:44:22.081Z,11.57
2023-10-13T00:49:46.650Z,9.97
2023-10-13T00:55:10.864Z,12.07
2023-10-13T01:00:33.922Z,15.83
2023-10-13T01:05:56.284Z,20.62
2023-10-13T01:11:19.368Z,28.17
2023-10-13T01:16:47.966Z,33.17
2023-10-13T01:22:11.238Z,32.47
2023-10-13T01:27:33.788Z,37.95
2023-10-13T01:32:58.695Z,21.50
2023-10-13T01:38:22.120Z,20.85
2023-10-13T01:43:44.681Z,20.05
2023-10-13T01:49:09.387Z,21.00
2023-10-13T01:54:34.030Z,13.28
2023-10-13T01:59:57.908Z,17.17
2023-10-13T02:05:20.927Z,10.90
2023-10-13T02:10:45.413Z,9.88
2023-10-13T02:16:11.489Z,6.35
2023-10-13T02:21:34.387Z,7.87
2023-10-13T02:26:56.810Z,9.55
2023-10-13T02:32:22.334Z,7.50
2023-10-13T02:37:45.783Z,7.40
2023-10-13T02:43:08.204Z,6.60
2023-10-13T02:54:17.337Z,8.00
2023-10-13T02:59:59.263Z,7.37
2023-10-13T03:05:23.627Z,7.00
2023-10-13T03:10:47.858Z,5.83
2023-10-13T03:16:12.632Z,5.43
2023-10-13T03:21:38.144Z,6.10
2023-10-13T03:27:00.662Z,6.12
2023-10-13T03:32:30.142Z,6.03
2023-10-13T03:37:52.484Z,6.90
2023-10-13T03:43:20.786Z,8.10
2023-10-13T03:48:44.823Z,11.70
2023-10-13T03:54:18.180Z,10.97
2023-10-13T03:59:41.601Z,12.20
2023-10-13T04:05:05.590Z,10.57
2023-10-13T04:10:45.419Z,9.40
2023-10-13T04:21:58.902Z,9.93
2023-10-13T04:27:47.979Z,10.03
2023-10-13T04:33:30.702Z,11.20
2023-10-13T04:39:00.308Z,10.70
2023-10-13T04:44:25.121Z,10.83
2023-10-13T04:49:49.889Z,11.78
2023-10-13T05:01:18.891Z,11.63
2023-10-13T05:12:31.480Z,11.83
2023-10-13T05:18:13.541Z,9.30
2023-10-13T05:23:55.602Z,8.40
2023-10-13T05:29:36.311Z,7.85
2023-10-13T05:35:18.065Z,7.78
2023-10-13T05:40:59.393Z,6.50
2023-10-13T05:46:28.563Z,9.28
2023-10-13T05:57:53.551Z,9.73
2023-10-13T06:03:34.442Z,9.77
2023-10-13T06:09:16.743Z,10.08
2023-10-13T06:14:58.530Z,7.00
2023-10-13T06:20:40.893Z,6.20
2023-10-13T06:26:23.406Z,6.22
2023-10-13T06:31:47.854Z,6.70
2023-10-13T06:43:14.235Z,8.00
2023-10-13T06:48:41.847Z,9.17
2023-10-13T06:54:08.771Z,12.70
2023-10-13T06:59:34.258Z,17.33
2023-10-13T07:05:01.264Z,24.30
2023-10-13T07:10:28.240Z,26.97
2023-10-13T07:15:52.665Z,26.07
2023-10-13T07:21:20.768Z,42.93
2023-10-13T07:32:23.417Z,13.70
2023-10-13T07:37:48.526Z,11.20
2023-10-13T07:43:12.334Z,9.10
2023-10-13T07:48:37.370Z,7.17
2023-10-13T07:54:03.710Z,7.23
2023-10-13T07:59:27.729Z,7.27
2023-10-13T08:04:51.524Z,7.62
2023-10-13T08:10:17.208Z,8.23
2023-10-13T08:15:42.319Z,8.43
2023-10-13T08:21:06.468Z,11.70
2023-10-13T08:26:48.558Z,14.95
2023-10-13T08:32:17.038Z,11.93
2023-10-13T08:37:53.516Z,10.82
2023-10-13T08:43:19.022Z,11.70
2023-10-13T08:48:45.327Z,11.40
2023-10-13T08:54:14.240Z,12.37
2023-10-13T08:59:42.770Z,11.55
2023-10-13T09:05:08.925Z,11.55
2023-10-13T09:10:38.776Z,12.30
2023-10-13T09:16:03.142Z,12.30
2023-10-13T09:21:39.692Z,11.73
2023-10-13T09:27:06.854Z,12.63
2023-10-13T09:32:30.233Z,11.78
2023-10-13T09:37:55.889Z,12.30
2023-10-13T09:43:20.041Z,13.98
2023-10-13T09:49:09.392Z,16.27
2023-10-13T09:54:48.543Z,18.15
2023-10-13T10:06:18.387Z,18.80
2023-10-13T10:11:57.995Z,19.27
2023-10-13T10:17:23.139Z,19.60
2023-10-13T10:22:50.596Z,19.65
2023-10-13T10:28:22.014Z,21.62
2023-10-13T10:33:53.710Z,19.47
2023-10-13T10:39:18.901Z,19.10
2023-10-13T10:44:49.450Z,18.73
2023-10-13T10:50:22.309Z,17.23
2023-10-13T10:55:47.051Z,16.40
2023-10-13T11:01:23.494Z,16.05
2023-10-13T11:06:59.777Z,15.18
2023-10-13T11:12:30.257Z,14.85
2023-10-13T11:18:00.333Z,14.20
2023-10-13T11:23:30.626Z,13.68
2023-10-13T11:34:17.618Z,12.40
2023-10-13T11:39:43.854Z,12.63
2023-10-13T11:45:24.905Z,13.53
2023-10-13T11:50:47.773Z,12.83
2023-10-13T11:56:11.286Z,11.78
2023-10-13T12:01:48.480Z,11.57
2023-10-13T12:07:49.953Z,11.30
2023-10-13T12:13:13.747Z,11.10
2023-10-13T12:18:36.955Z,10.80
2023-10-13T12:24:02.435Z,10.90
2023-10-13T12:29:30.750Z,11.73
2023-10-13T12:35:08.172Z,11.50
2023-10-13T12:40:50.626Z,10.98
2023-10-13T12:46:31.126Z,11.35
2023-10-13T12:51:55.598Z,11.53
2023-10-13T12:57:20.004Z,11.80
2023-10-13T13:02:43.246Z,11.48
2023-10-13T13:08:07.215Z,11.35
2023-10-13T13:13:31.424Z,11.90
2023-10-13T13:24:29.956Z,12.77
2023-10-13T13:29:57.878Z,11.97
2023-10-13T13:35:20.923Z,13.10
2023-10-13T13:40:47.622Z,12.25
2023-10-13T13:46:17.187Z,12.82
2023-10-13T13:51:41.179Z,11.77
2023-10-13T13:57:05.390Z,11.13
2023-10-13T14:02:30.168Z,10.70
2023-10-13T14:07:54.549Z,9.33
2023-10-13T14:13:23.928Z,9.03
2023-10-13T14:18:47.822Z,7.83
2023-10-13T14:24:17.902Z,7.58
2023-10-13T14:29:44.812Z,8.13
2023-10-13T14:40:45.263Z,7.03
2023-10-13T14:46:10.223Z,7.30
2023-10-13T14:51:33.773Z,6.47
2023-10-13T14:56:57.363Z,6.30
2023-10-13T15:02:20.365Z,6.50
2023-10-13T15:07:44.677Z,6.30
2023-10-13T15:13:10.307Z,6.37
2023-10-13T15:18:32.698Z,6.87
2023-10-13T15:23:57.062Z,6.77
2023-10-13T15:29:20.030Z,7.40
2023-10-13T15:34:42.585Z,7.03
2023-10-13T15:40:06.142Z,7.70
2023-10-13T15:45:31.903Z,7.35
2023-10-13T15:50:59.387Z,7.08
2023-10-13T15:56:23.305Z,8.10
2023-10-13T16:01:48.571Z,8.30
2023-10-13T16:07:11.350Z,7.95
2023-10-13T16:12:33.919Z,7.55
2023-10-13T16:17:56.649Z,8.23
2023-10-13T16:23:19.561Z,8.80
2023-10-13T16:28:43.647Z,10.13
2023-10-13T16:34:09.206Z,9.33
2023-10-13T16:39:32.350Z,9.05
2023-10-13T16:44:55.580Z,9.48
2023-10-13T16:50:19.660Z,9.23
2023-10-13T16:55:44.779Z,10.93
2023-10-13T17:01:09.268Z,10.20
2023-10-13T17:06:32.277Z,9.35
2023-10-13T17:11:54.755Z,10.27
2023-10-13T17:17:17.608Z,9.73
2023-10-13T17:22:42.640Z,9.55
2023-10-13T17:28:09.483Z,9.80
2023-10-13T17:33:43.158Z,8.97
2023-10-13T17:39:09.555Z,9.03
2023-10-13T17:44:33.446Z,8.40
2023-10-13T17:49:56.994Z,8.00
2023-10-13T17:55:21.591Z,7.43
2023-10-13T18:00:46.728Z,7.28
2023-10-13T18:06:16.949Z,6.85
2023-10-13T18:11:43.683Z,6.90
2023-10-13T18:17:09.911Z,7.10
2023-10-13T18:22:34.555Z,6.17
2023-10-13T18:27:57.942Z,6.65
2023-10-13T18:33:21.924Z,6.67
2023-10-13T18:38:46.149Z,7.00
2023-10-13T18:44:11.054Z,6.78
2023-10-13T18:49:37.559Z,6.28
2023-10-13T18:55:04.289Z,5.87
2023-10-13T19:00:27.960Z,6.22
2023-10-13T19:05:51.426Z,5.85
2023-10-13T19:11:17.204Z,5.97
2023-10-13T19:16:41.911Z,5.35
2023-10-13T19:22:07.914Z,6.10
2023-10-13T19:27:31.659Z,5.53
2023-10-13T19:32:56.910Z,5.60
2023-10-13T19:38:21.314Z,6.15
2023-10-13T19:43:46.523Z,5.40
2023-10-13T19:49:10.893Z,5.37
2023-10-13T19:54:34.598Z,6.35
2023-10-13T20:00:00.036Z,6.08
2023-10-13T20:05:26.278Z,5.90
2023-10-13T20:10:52.214Z,5.70
2023-10-13T20:21:51.070Z,5.23
2023-10-13T20:27:14.738Z,5.60
2023-10-13T20:32:38.803Z,6.33
2023-10-13T20:38:03.901Z,5.80
2023-10-13T20:43:27.864Z,5.67
2023-10-13T20:48:54.926Z,5.53
2023-10-13T20:54:19.764Z,5.53
2023-10-13T20:59:45.003Z,5.40
2023-10-13T21:05:10.352Z,5.85
2023-10-13T21:10:37.128Z,5.70
2023-10-13T21:16:01.788Z,4.92
2023-10-13T21:21:31.469Z,5.28
2023-10-13T21:26:54.731Z,5.40
2023-10-13T21:32:18.929Z,5.92
2023-10-13T21:37:43.629Z,6.00
2023-10-13T21:43:08.252Z,5.35
2023-10-13T21:48:31.996Z,5.30
2023-10-13T21:53:56.696Z,6.23
2023-10-13T21:59:21.408Z,5.57
2023-10-13T22:04:46.877Z,6.25
2023-10-13T22:10:11.629Z,5.83
2023-10-13T22:15:38.832Z,5.67
2023-10-13T22:21:03.915Z,6.30
2023-10-13T22:26:33.246Z,5.83
2023-10-13T22:31:57.176Z,5.80
2023-10-13T22:37:22.515Z,5.85
2023-10-13T22:42:47.806Z,5.70
2023-10-13T22:48:16.097Z,5.80
2023-10-13T22:53:39.336Z,5.65
2023-10-13T22:59:03.174Z,6.23
2023-10-13T23:04:27.360Z,5.80
2023-10-13T23:09:51.521Z,5.40
2023-10-13T23:15:16.810Z,5.78
2023-10-13T23:20:41.423Z,5.50
2023-10-13T23:26:06.122Z,5.62
2023-10-13T23:31:31.124Z,5.37
2023-10-13T23:36:55.116Z,5.37
2023-10-13T23:42:21.609Z,5.75
2023-10-13T23:47:48.358Z,5.35
2023-10-13T23:53:15.461Z,5.37
2023-10-13T23:58:40.257Z,5.83
